createdAt,value
2023-04-28T00:00:19.569Z,17.33
2023-04-28T00:02:50.496Z,22.50
2023-04-28T00:05:19.983Z,21.57
2023-04-28T00:07:49.226Z,20.37
2023-04-28T00:10:18.613Z,19.63
2023-04-28T00:12:47.813Z,22.37
2023-04-28T00:15:17.152Z,18.07
2023-04-28T00:17:46.517Z,21.20
2023-04-28T00:20:17.257Z,20.03
2023-04-28T00:22:46.510Z,21.37
2023-04-28T00:25:15.837Z,20.40
2023-04-28T00:27:45.073Z,17.90
2023-04-28T00:30:14.982Z,21.30
2023-04-28T00:32:44.352Z,18.30
2023-04-28T00:35:13.578Z,19.17
2023-04-28T00:37:44.364Z,19.87
2023-04-28T00:40:14.254Z,20.03
2023-04-28T00:42:44.205Z,21.83
2023-04-28T00:45:13.848Z,20.00
2023-04-28T00:47:44.511Z,19.57
2023-04-28T00:50:14.533Z,17.27
2023-04-28T00:52:45.567Z,21.63
2023-04-28T00:55:17.658Z,21.43
2023-04-28T00:57:47.615Z,18.17
2023-04-28T01:00:17.678Z,18.87
2023-04-28T01:02:47.063Z,18.63
2023-04-28T01:05:16.885Z,24.60
2023-04-28T01:07:48.000Z,19.43
2023-04-28T01:10:17.547Z,18.87
2023-04-28T01:12:46.923Z,22.97
2023-04-28T01:15:18.924Z,26.10
2023-04-28T01:17:49.285Z,21.63
2023-04-28T01:20:18.805Z,23.10
2023-04-28T01:22:49.777Z,24.10
2023-04-28T01:25:21.605Z,22.57
2023-04-28T01:27:51.293Z,23.30
2023-04-28T01:30:21.337Z,26.83
2023-04-28T01:32:50.455Z,31.33
2023-04-28T01:35:19.640Z,30.93
2023-04-28T01:37:48.833Z,27.30
2023-04-28T01:40:18.229Z,27.10
2023-04-28T01:42:49.005Z,27.97
2023-04-28T01:45:18.294Z,26.13
2023-04-28T01:47:47.760Z,21.73
2023-04-28T01:50:17.030Z,28.30
2023-04-28T01:52:46.241Z,27.17
2023-04-28T01:55:15.991Z,33.43
2023-04-28T01:57:45.397Z,30.27
2023-04-28T02:00:16.855Z,25.67
2023-04-28T02:02:51.626Z,23.10
2023-04-28T02:05:21.067Z,23.13
2023-04-28T02:07:52.001Z,27.60
2023-04-28T02:10:22.068Z,23.50
2023-04-28T02:12:51.542Z,26.03
2023-04-28T02:15:22.669Z,22.10
2023-04-28T02:17:51.856Z,22.20
2023-04-28T02:20:21.653Z,26.87
2023-04-28T02:22:51.634Z,23.17
2023-04-28T02:25:21.303Z,23.63
2023-04-28T02:27:50.673Z,25.77
2023-04-28T02:30:21.741Z,25.83
2023-04-28T02:32:51.211Z,22.03
2023-04-28T02:35:20.686Z,24.50
2023-04-28T02:37:50.039Z,23.50
2023-04-28T02:40:21.332Z,22.77
2023-04-28T02:42:50.776Z,21.70
2023-04-28T02:45:21.633Z,20.73
2023-04-28T02:47:51.042Z,22.47
2023-04-28T02:50:20.736Z,20.83
2023-04-28T02:52:49.972Z,21.90
2023-04-28T02:55:24.386Z,22.53
2023-04-28T02:57:55.066Z,23.03
2023-04-28T03:00:26.052Z,21.90
2023-04-28T03:02:56.312Z,21.60
2023-04-28T03:05:25.715Z,22.17
2023-04-28T03:07:55.173Z,21.40
2023-04-28T03:10:24.710Z,19.47
2023-04-28T03:12:54.160Z,24.20
2023-04-28T03:15:24.846Z,27.47
2023-04-28T03:17:54.231Z,19.07
2023-04-28T03:20:23.394Z,21.83
2023-04-28T03:22:52.452Z,31.33
2023-04-28T03:25:21.807Z,24.50
2023-04-28T03:27:53.575Z,18.70
2023-04-28T03:30:24.518Z,22.83
2023-04-28T03:32:53.819Z,21.63
2023-04-28T03:35:23.175Z,19.87
2023-04-28T03:37:52.487Z,21.97
2023-04-28T03:40:21.808Z,20.00
2023-04-28T03:43:13.806Z,22.97
2023-04-28T03:45:59.649Z,19.37
2023-04-28T03:48:29.041Z,24.23
2023-04-28T03:50:58.433Z,24.17
2023-04-28T03:53:28.041Z,27.57
2023-04-28T03:55:57.332Z,23.17
2023-04-28T03:58:28.300Z,32.60
2023-04-28T04:01:01.183Z,30.87
2023-04-28T04:03:30.675Z,28.97
2023-04-28T04:06:00.857Z,19.73
2023-04-28T04:08:30.170Z,28.80
2023-04-28T04:10:59.487Z,25.63
2023-04-28T04:13:28.778Z,23.67
2023-04-28T04:15:59.986Z,22.27
2023-04-28T04:18:29.977Z,18.80
2023-04-28T04:21:21.326Z,20.50
2023-04-28T04:23:52.849Z,18.73
2023-04-28T04:26:22.608Z,16.27
2023-04-28T04:28:53.177Z,19.60
2023-04-28T04:31:24.347Z,19.55
2023-04-28T04:33:53.978Z,19.73
2023-04-28T04:36:24.422Z,17.83
2023-04-28T04:38:54.699Z,19.83
2023-04-28T04:41:25.176Z,16.98
2023-04-28T04:44:06.123Z,18.80
2023-04-28T04:46:43.110Z,14.23
2023-04-28T04:49:12.367Z,16.20
2023-04-28T04:51:41.816Z,18.70
2023-04-28T04:54:11.713Z,16.73
2023-04-28T04:56:43.834Z,16.25
2023-04-28T04:59:15.073Z,18.85
2023-04-28T05:01:59.795Z,16.65
2023-04-28T05:04:29.494Z,14.45
2023-04-28T05:06:59.009Z,14.23
2023-04-28T05:09:29.322Z,14.07
2023-04-28T05:11:58.575Z,16.85
2023-04-28T05:14:28.125Z,14.63
2023-04-28T05:16:59.130Z,17.17
2023-04-28T05:19:34.063Z,15.50
2023-04-28T05:22:04.130Z,17.52
2023-04-28T05:24:34.512Z,17.52
2023-04-28T05:27:04.689Z,17.13
2023-04-28T05:29:33.949Z,20.75
2023-04-28T05:32:04.740Z,14.73
2023-04-28T05:34:34.872Z,13.73
2023-04-28T05:37:04.342Z,15.80
2023-04-28T05:39:34.856Z,19.95
2023-04-28T05:42:07.411Z,15.02
2023-04-28T05:44:37.523Z,16.98
2023-04-28T05:47:08.242Z,14.02
2023-04-28T05:49:37.485Z,14.35
2023-04-28T05:52:08.372Z,14.25
2023-04-28T05:54:38.012Z,19.67
2023-04-28T05:57:07.405Z,15.57
2023-04-28T05:59:37.082Z,18.52
2023-04-28T06:02:08.201Z,19.60
2023-04-28T06:04:40.884Z,18.73
2023-04-28T06:07:10.357Z,18.50
2023-04-28T06:09:40.466Z,14.40
2023-04-28T06:12:09.987Z,15.60
2023-04-28T06:14:40.527Z,14.70
2023-04-28T06:17:12.177Z,12.65
2023-04-28T06:19:41.392Z,12.75
2023-04-28T06:22:11.390Z,12.45
2023-04-28T06:24:42.149Z,17.45
2023-04-28T06:27:14.440Z,14.85
2023-04-28T06:29:43.642Z,15.70
2023-04-28T06:32:14.665Z,16.58
2023-04-28T06:34:44.261Z,11.50
2023-04-28T06:37:14.580Z,16.33
2023-04-28T06:39:43.948Z,12.43
2023-04-28T06:42:13.576Z,18.40
2023-04-28T06:44:45.417Z,10.35
2023-04-28T06:47:16.219Z,14.70
2023-04-28T06:49:47.657Z,12.85
2023-04-28T06:52:17.019Z,17.45
2023-04-28T06:54:46.592Z,9.88
2023-04-28T06:57:16.141Z,10.85
2023-04-28T06:59:46.527Z,12.45
2023-04-28T07:02:17.210Z,10.75
2023-04-28T07:04:46.445Z,11.63
2023-04-28T07:07:16.442Z,7.20
2023-04-28T07:09:48.417Z,9.50
2023-04-28T07:12:17.739Z,7.93
2023-04-28T07:14:47.901Z,9.75
2023-04-28T07:17:19.082Z,9.35
2023-04-28T07:19:50.210Z,9.88
2023-04-28T07:22:19.715Z,10.35
2023-04-28T07:24:48.866Z,6.72
2023-04-28T07:27:18.058Z,5.25
2023-04-28T07:29:47.514Z,6.03
2023-04-28T07:32:18.389Z,6.05
2023-04-28T07:34:47.679Z,5.57
2023-04-28T07:37:16.937Z,3.70
2023-04-28T07:39:46.204Z,5.38
2023-04-28T07:42:15.495Z,5.55
2023-04-28T07:45:00.962Z,4.90
2023-04-28T07:47:31.659Z,6.65
2023-04-28T07:50:05.100Z,3.95
2023-04-28T07:52:34.713Z,6.40
2023-04-28T07:55:04.537Z,3.83
2023-04-28T07:57:33.980Z,3.95
2023-04-28T08:00:03.697Z,4.95
2023-04-28T08:02:42.615Z,5.40
2023-04-28T08:05:12.528Z,4.18
2023-04-28T08:07:42.212Z,7.90
2023-04-28T08:10:12.405Z,4.25
2023-04-28T08:12:42.229Z,5.30
2023-04-28T08:15:12.032Z,4.60
2023-04-28T08:17:43.315Z,4.40
2023-04-28T08:20:15.515Z,4.70
2023-04-28T08:22:44.778Z,4.45
2023-04-28T08:25:14.163Z,6.53
2023-04-28T08:27:43.627Z,7.00
2023-04-28T08:30:13.201Z,3.67
2023-04-28T08:32:44.132Z,6.43
2023-04-28T08:35:13.337Z,5.95
2023-04-28T08:37:42.712Z,4.63
2023-04-28T08:40:12.477Z,4.95
2023-04-28T08:42:41.923Z,3.83
2023-04-28T08:45:15.337Z,6.30
2023-04-28T08:47:47.922Z,3.67
2023-04-28T08:50:20.033Z,4.38
2023-04-28T08:52:49.657Z,4.32
2023-04-28T08:55:20.660Z,3.22
2023-04-28T08:57:52.909Z,3.78
2023-04-28T09:00:22.328Z,7.10
2023-04-28T09:02:53.160Z,3.35
2023-04-28T09:05:22.902Z,4.22
2023-04-28T09:07:52.509Z,5.90
2023-04-28T09:10:23.530Z,5.05
2023-04-28T09:13:11.640Z,4.43
2023-04-28T09:16:01.716Z,6.83
2023-04-28T09:18:33.683Z,5.90
2023-04-28T09:21:07.792Z,4.65
2023-04-28T09:23:47.699Z,5.20
2023-04-28T09:26:17.931Z,8.02
2023-04-28T09:28:47.461Z,5.82
2023-04-28T09:31:28.281Z,6.30
2023-04-28T09:34:02.925Z,4.43
2023-04-28T09:36:32.950Z,4.88
2023-04-28T09:39:03.345Z,4.82
2023-04-28T09:41:40.670Z,4.22
2023-04-28T09:44:19.310Z,5.85
2023-04-28T09:46:49.424Z,9.18
2023-04-28T09:49:20.033Z,4.90
2023-04-28T09:51:50.102Z,3.65
2023-04-28T09:54:22.967Z,3.65
2023-04-28T09:56:53.226Z,5.53
2023-04-28T09:59:23.226Z,3.67
2023-04-28T10:01:53.216Z,7.53
2023-04-28T10:04:24.471Z,7.88
2023-04-28T10:06:53.944Z,6.38
2023-04-28T10:09:26.925Z,5.53
2023-04-28T10:11:56.084Z,4.25
2023-04-28T10:14:26.943Z,6.13
2023-04-28T10:16:57.013Z,5.22
2023-04-28T10:19:27.747Z,4.07
2023-04-28T10:22:07.734Z,3.55
2023-04-28T10:24:55.495Z,4.18
2023-04-28T10:27:32.854Z,3.17
2023-04-28T10:30:28.028Z,4.68
2023-04-28T10:33:27.220Z,2.85
2023-04-28T10:35:58.134Z,3.13
2023-04-28T10:38:27.442Z,5.43
2023-04-28T10:41:01.791Z,4.70
2023-04-28T10:43:40.799Z,4.82
2023-04-28T10:46:12.120Z,5.93
2023-04-28T10:48:58.445Z,3.28
2023-04-28T10:51:35.952Z,3.55
2023-04-28T10:54:20.790Z,5.72
2023-04-28T10:57:21.619Z,3.95
2023-04-28T10:59:51.733Z,5.32
2023-04-28T11:02:51.283Z,6.15
2023-04-28T11:05:21.230Z,8.60
2023-04-28T11:08:35.172Z,5.55
2023-04-28T11:11:20.443Z,5.20
2023-04-28T11:13:50.952Z,4.70
2023-04-28T11:16:23.078Z,2.97
2023-04-28T11:18:55.934Z,5.13
2023-04-28T11:21:28.540Z,4.35
2023-04-28T11:23:58.997Z,4.50
2023-04-28T11:26:30.702Z,6.15
2023-04-28T11:29:00.044Z,4.45
2023-04-28T11:31:29.408Z,5.68
2023-04-28T11:34:05.973Z,7.13
2023-04-28T11:36:37.444Z,4.55
2023-04-28T11:39:08.406Z,4.07
2023-04-28T11:41:40.605Z,3.40
2023-04-28T11:44:14.063Z,3.45
2023-04-28T11:46:55.311Z,3.05
2023-04-28T11:49:25.873Z,4.30
2023-04-28T11:51:55.464Z,3.42
2023-04-28T11:54:26.335Z,5.40
2023-04-28T11:56:58.538Z,3.30
2023-04-28T11:59:29.090Z,3.25
2023-04-28T12:02:00.533Z,4.38
2023-04-28T12:04:32.177Z,3.80
2023-04-28T12:07:06.493Z,3.75
2023-04-28T12:09:36.641Z,4.15
2023-04-28T12:12:08.884Z,7.75
2023-04-28T12:14:56.525Z,6.93
2023-04-28T12:17:27.032Z,6.35
2023-04-28T12:19:56.895Z,8.35
2023-04-28T12:22:26.971Z,5.38
2023-04-28T12:25:09.871Z,8.40
2023-04-28T12:27:41.354Z,4.95
2023-04-28T12:30:30.114Z,5.15
2023-04-28T12:32:59.564Z,7.00
2023-04-28T12:35:30.391Z,7.45
2023-04-28T12:38:00.156Z,5.15
2023-04-28T12:40:29.530Z,6.68
2023-04-28T12:43:00.072Z,4.95
2023-04-28T12:45:30.504Z,4.47
2023-04-28T12:47:59.649Z,4.07
2023-04-28T12:50:32.614Z,4.70
2023-04-28T12:53:01.870Z,4.00
2023-04-28T12:55:31.407Z,3.88
2023-04-28T12:58:02.240Z,3.92
2023-04-28T13:00:31.960Z,4.70
2023-04-28T13:03:01.415Z,4.90
2023-04-28T13:05:31.058Z,6.15
2023-04-28T13:08:00.500Z,4.22
2023-04-28T13:10:29.975Z,4.07
2023-04-28T13:12:59.485Z,6.25
2023-04-28T13:15:59.020Z,4.97
2023-04-28T13:18:28.507Z,6.78
2023-04-28T13:20:57.797Z,5.97
2023-04-28T13:23:27.202Z,6.00
2023-04-28T13:25:56.468Z,4.82
2023-04-28T13:28:25.794Z,7.55
2023-04-28T13:30:54.985Z,6.05
2023-04-28T13:33:31.287Z,5.05
2023-04-28T13:36:00.498Z,7.82
2023-04-28T13:38:29.704Z,6.07
2023-04-28T13:40:58.869Z,5.85
2023-04-28T13:43:56.902Z,6.93
2023-04-28T13:46:26.343Z,6.53
2023-04-28T13:48:57.466Z,5.23
2023-04-28T13:51:26.640Z,5.00
2023-04-28T13:53:56.088Z,5.25
2023-04-28T13:56:25.396Z,6.53
2023-04-28T13:58:54.886Z,5.63
2023-04-28T14:01:25.462Z,6.27
2023-04-28T14:03:54.907Z,5.90
2023-04-28T14:06:26.279Z,4.77
2023-04-28T14:08:55.676Z,5.40
2023-04-28T14:11:24.927Z,6.10
2023-04-28T14:13:54.308Z,5.63
2023-04-28T14:16:23.849Z,7.53
2023-04-28T14:18:53.358Z,5.57
2023-04-28T14:21:22.574Z,5.30
2023-04-28T14:23:53.219Z,6.30
2023-04-28T14:26:24.044Z,5.53
2023-04-28T14:28:54.250Z,6.15
2023-04-28T14:31:24.148Z,5.47
2023-04-28T14:33:53.747Z,5.07
2023-04-28T14:36:23.994Z,6.55
2023-04-28T14:38:55.143Z,6.50
2023-04-28T14:41:24.395Z,5.13
2023-04-28T14:43:53.981Z,5.97
2023-04-28T14:46:23.732Z,5.40
2023-04-28T14:48:54.036Z,7.60
2023-04-28T14:51:23.638Z,5.60
2023-04-28T14:53:54.733Z,6.00
2023-04-28T14:56:24.630Z,4.68
2023-04-28T14:58:54.456Z,5.28
2023-04-28T15:01:24.276Z,5.25
2023-04-28T15:03:53.782Z,6.55
2023-04-28T15:06:23.220Z,5.57
2023-04-28T15:08:53.994Z,5.53
2023-04-28T15:11:23.532Z,6.70
2023-04-28T15:13:52.846Z,5.25
2023-04-28T15:16:22.369Z,7.43
2023-04-28T15:18:51.705Z,6.03
2023-04-28T15:21:21.010Z,8.93
2023-04-28T15:23:50.235Z,5.88
2023-04-28T15:26:20.884Z,6.57
2023-04-28T15:28:50.358Z,7.20
2023-04-28T15:31:19.866Z,5.60
2023-04-28T15:33:49.339Z,5.97
2023-04-28T15:36:20.643Z,7.53
2023-04-28T15:38:50.430Z,6.78
2023-04-28T15:41:21.156Z,7.25
2023-04-28T15:43:50.978Z,6.30
2023-04-28T15:46:20.370Z,6.80
2023-04-28T15:48:50.179Z,5.43
2023-04-28T15:51:19.433Z,9.05
2023-04-28T15:53:50.884Z,7.35
2023-04-28T15:56:21.662Z,6.68
2023-04-28T15:58:51.284Z,6.18
2023-04-28T16:01:21.349Z,6.22
2023-04-28T16:03:50.798Z,5.65
2023-04-28T16:06:20.185Z,6.20
2023-04-28T16:08:49.567Z,4.90
2023-04-28T16:11:20.670Z,6.82
2023-04-28T16:13:51.636Z,7.30
2023-04-28T16:16:21.573Z,5.38
2023-04-28T16:18:50.835Z,6.93
2023-04-28T16:21:20.610Z,7.05
2023-04-28T16:23:52.445Z,9.73
2023-04-28T16:26:22.284Z,6.15
2023-04-28T16:28:53.236Z,7.55
2023-04-28T16:31:22.489Z,5.97
2023-04-28T16:33:52.268Z,6.65
2023-04-28T16:36:21.820Z,9.32
2023-04-28T16:38:51.232Z,6.90
2023-04-28T16:41:20.548Z,6.33
2023-04-28T16:43:49.728Z,5.70
2023-04-28T16:46:20.728Z,5.50
2023-04-28T16:48:50.194Z,7.00
2023-04-28T16:51:20.100Z,6.30
2023-04-28T16:53:49.870Z,10.90
2023-04-28T16:56:19.191Z,8.53
2023-04-28T16:58:48.581Z,5.30
2023-04-28T17:01:19.521Z,8.97
2023-04-28T17:03:48.932Z,8.70
2023-04-28T17:06:18.182Z,7.73
2023-04-28T17:08:47.379Z,6.43
2023-04-28T17:11:18.938Z,6.07
2023-04-28T17:13:49.073Z,6.27
2023-04-28T17:16:19.947Z,7.17
2023-04-28T17:18:49.234Z,8.87
2023-04-28T17:21:18.659Z,9.20
2023-04-28T17:23:47.811Z,8.77
2023-04-28T17:26:17.713Z,7.93
2023-04-28T17:28:46.888Z,7.87
2023-04-28T17:31:16.235Z,10.53
2023-04-28T17:33:47.040Z,8.20
2023-04-28T17:36:16.285Z,7.13
2023-04-28T17:38:45.538Z,7.63
2023-04-28T17:41:15.443Z,7.90
2023-04-28T17:43:46.216Z,8.20
2023-04-28T17:46:16.241Z,11.40
2023-04-28T17:48:46.853Z,7.77
2023-04-28T17:51:16.228Z,11.87
2023-04-28T17:53:46.598Z,14.17
2023-04-28T17:56:16.608Z,12.63
2023-04-28T17:58:45.897Z,7.53
2023-04-28T18:01:15.486Z,8.57
2023-04-28T18:03:48.686Z,8.73
2023-04-28T18:06:18.091Z,9.80
2023-04-28T18:08:47.335Z,7.40
2023-04-28T18:11:18.566Z,11.73
2023-04-28T18:13:48.540Z,11.93
2023-04-28T18:16:18.060Z,13.83
2023-04-28T18:18:49.687Z,16.77
2023-04-28T18:21:19.538Z,10.30
2023-04-28T18:23:49.206Z,10.50
2023-04-28T18:26:21.298Z,10.87
2023-04-28T18:28:51.142Z,9.33
2023-04-28T18:31:22.057Z,8.43
2023-04-28T18:33:55.720Z,9.70
2023-04-28T18:36:25.901Z,13.37
2023-04-28T18:38:56.317Z,14.90
2023-04-28T18:41:26.278Z,11.83
2023-04-28T18:43:59.625Z,12.67
2023-04-28T18:46:30.912Z,14.20
2023-04-28T18:49:03.292Z,13.23
2023-04-28T18:51:33.875Z,17.50
2023-04-28T18:54:05.283Z,15.43
2023-04-28T18:56:36.080Z,19.60
2023-04-28T18:59:06.661Z,16.23
2023-04-28T19:01:37.461Z,16.53
2023-04-28T19:04:09.517Z,13.00
2023-04-28T19:06:40.074Z,12.63
2023-04-28T19:09:10.761Z,15.63
2023-04-28T19:11:42.003Z,11.63
2023-04-28T19:14:12.496Z,17.63
2023-04-28T19:16:42.948Z,14.20
2023-04-28T19:19:15.780Z,12.13
2023-04-28T19:21:47.204Z,23.80
2023-04-28T19:24:31.212Z,19.03
2023-04-28T19:27:03.304Z,14.03
2023-04-28T19:29:33.526Z,16.23
2023-04-28T19:32:03.539Z,19.33
2023-04-28T19:34:35.450Z,13.70
2023-04-28T19:37:10.272Z,16.73
2023-04-28T19:39:41.549Z,17.17
2023-04-28T19:42:12.879Z,18.30
2023-04-28T19:44:43.110Z,14.43
2023-04-28T19:47:15.012Z,19.37
2023-04-28T19:49:47.101Z,17.23
2023-04-28T19:52:17.914Z,17.33
2023-04-28T19:54:48.410Z,16.60
2023-04-28T19:57:21.220Z,16.17
2023-04-28T19:59:53.739Z,17.30
2023-04-28T20:02:24.575Z,14.23
2023-04-28T20:04:57.499Z,17.17
2023-04-28T20:07:28.538Z,14.77
2023-04-28T20:09:59.316Z,13.77
2023-04-28T20:12:30.247Z,13.63
2023-04-28T20:15:01.498Z,17.00
2023-04-28T20:17:31.565Z,14.47
2023-04-28T20:20:06.419Z,18.83
2023-04-28T20:22:36.705Z,20.37
2023-04-28T20:25:07.793Z,16.13
2023-04-28T20:27:38.549Z,17.67
2023-04-28T20:30:09.809Z,17.70
2023-04-28T20:32:39.987Z,15.40
2023-04-28T20:35:11.519Z,18.50
2023-04-28T20:37:41.031Z,20.67
2023-04-28T20:40:11.882Z,20.57
2023-04-28T20:42:41.121Z,17.00
2023-04-28T20:45:11.664Z,16.77
2023-04-28T20:47:41.018Z,19.57
2023-04-28T20:50:13.112Z,23.27
2023-04-28T20:52:42.911Z,19.77
2023-04-28T20:55:12.784Z,17.70
2023-04-28T20:57:42.135Z,16.97
2023-04-28T21:00:13.256Z,17.93
2023-04-28T21:02:42.902Z,23.80
2023-04-28T21:05:13.974Z,17.23
2023-04-28T21:07:43.169Z,20.37
2023-04-28T21:10:12.708Z,16.17
2023-04-28T21:12:42.009Z,19.83
2023-04-28T21:15:12.069Z,15.97
2023-04-28T21:17:41.434Z,18.37
2023-04-28T21:20:13.534Z,16.53
2023-04-28T21:22:43.139Z,21.73
2023-04-28T21:25:12.389Z,15.60
2023-04-28T21:27:41.888Z,15.73
2023-04-28T21:30:13.241Z,18.30
2023-04-28T21:32:42.848Z,16.87
2023-04-28T21:35:13.890Z,16.47
2023-04-28T21:37:43.114Z,16.17
2023-04-28T21:40:12.843Z,17.67
2023-04-28T21:42:42.034Z,17.37
2023-04-28T21:45:12.839Z,16.57
2023-04-28T21:47:43.540Z,15.83
2023-04-28T21:50:14.419Z,15.30
2023-04-28T21:52:43.643Z,17.00
2023-04-28T21:55:12.951Z,16.23
2023-04-28T21:57:42.327Z,13.90
2023-04-28T22:00:12.849Z,19.33
2023-04-28T22:02:45.252Z,15.37
2023-04-28T22:05:16.351Z,17.33
2023-04-28T22:07:45.769Z,14.60
2023-04-28T22:10:15.236Z,15.23
2023-04-28T22:12:44.390Z,18.27
2023-04-28T22:15:13.807Z,15.20
2023-04-28T22:17:43.503Z,16.77
2023-04-28T22:20:13.752Z,17.37
2023-04-28T22:22:44.525Z,16.57
2023-04-28T22:25:13.787Z,18.80
2023-04-28T22:27:43.022Z,17.53
2023-04-28T22:30:13.293Z,17.83
2023-04-28T22:32:44.888Z,15.33
2023-04-28T22:35:14.332Z,15.27
2023-04-28T22:37:45.109Z,17.20
2023-04-28T22:40:14.539Z,16.70
2023-04-28T22:42:44.707Z,17.43
2023-04-28T22:45:14.357Z,16.37
2023-04-28T22:47:43.692Z,17.50
2023-04-28T22:50:13.806Z,16.23
2023-04-28T22:52:44.701Z,16.80
2023-04-28T22:55:14.603Z,16.10
2023-04-28T22:57:43.809Z,12.70
2023-04-28T23:00:15.891Z,14.93
2023-04-28T23:02:46.152Z,18.33
2023-04-28T23:05:15.663Z,16.73
2023-04-28T23:07:46.524Z,15.30
2023-04-28T23:10:15.828Z,17.30
2023-04-28T23:12:45.251Z,15.87
2023-04-28T23:15:14.606Z,15.10
2023-04-28T23:17:44.815Z,16.00
2023-04-28T23:20:14.474Z,16.67
2023-04-28T23:22:43.730Z,20.23
2023-04-28T23:25:14.676Z,19.23
2023-04-28T23:27:43.970Z,17.43
2023-04-28T23:30:14.501Z,20.37
2023-04-28T23:32:43.946Z,15.87
2023-04-28T23:35:14.234Z,15.53
2023-04-28T23:37:43.363Z,18.93
2023-04-28T23:40:14.937Z,17.03
2023-04-28T23:42:44.205Z,17.60
2023-04-28T23:45:13.570Z,22.00
2023-04-28T23:47:43.168Z,20.17
2023-04-28T23:50:13.001Z,17.27
2023-04-28T23:52:43.103Z,16.30
2023-04-28T23:55:14.018Z,17.77
2023-04-28T23:57:43.280Z,19.27
